HYS weather

Hays Regional Airport
Hays, Kansas, United States

Public forecast

Using degrees Fahrenheit for public forecast. Weather courtesy of forecast.io.

Current aviation weather report (METAR) for Hays Regional Airport

Retrieved 2019/10/14 15:56 UTC (52 minutes ago):

KHYS 141556Z AUTO 18006KT 10SM CLR 15/08 A2992 RMK AO2 SLP134 T01500078

Aviation forecast (TAF) for Hays Regional Airport

Retrieved 2019/10/14 12:22 UTC (4 hours ago):

TAF KHYS 141120Z 1412/1512 14005KT P6SM SKC FM141900 18015KT P6SM SKC FM150100 17006KT P6SM SKC FM151000 35016KT P6SM SKC